Terminal Aerodrome Forecast
Issued by NWS

Home | Current Version | Previous Version | Text Only | Print | Product List | Glossary Off
Versions: 1 2 3 4 5 6 7 8 9 10 11 12 13

000
FTUS43 KICT 020520
TAFCNU
TAF
KCNU 020520Z 0206/0306 15005KT P6SM SCT250
     FM021000 16007KT P6SM SCT150
     FM021700 18012KT P6SM SCT060
     FM030000 16007KT P6SM SKC=

USA.gov is the U.S. government's official web portal to all federal, state and local government web resources and services.